createdAt,value
2023-01-29T00:00:10.069Z,-0.80
2023-01-29T00:01:11.948Z,-0.80
2023-01-29T00:02:13.776Z,-0.80
2023-01-29T00:03:16.532Z,-0.80
2023-01-29T00:04:18.627Z,-0.80
2023-01-29T00:05:27.864Z,-0.90
2023-01-29T00:06:30.204Z,-0.80
2023-01-29T00:07:32.464Z,-0.80
2023-01-29T00:08:38.496Z,-0.70
2023-01-29T00:09:40.490Z,-0.70
2023-01-29T00:10:42.229Z,-0.70
2023-01-29T00:11:43.960Z,-0.80
2023-01-29T00:12:45.709Z,-0.80
2023-01-29T00:13:47.774Z,-0.80
2023-01-29T00:14:49.758Z,-0.80
2023-01-29T00:15:56.633Z,-0.80
2023-01-29T00:16:58.384Z,-0.80
2023-01-29T00:18:00.143Z,-0.80
2023-01-29T00:19:02.926Z,-0.80
2023-01-29T00:20:05.148Z,-0.80
2023-01-29T00:21:15.260Z,-0.80
2023-01-29T00:22:17.094Z,-0.80
2023-01-29T00:23:19.324Z,-0.80
2023-01-29T00:24:21.160Z,-0.80
2023-01-29T00:25:23.147Z,-0.80
2023-01-29T00:26:25.228Z,-0.80
2023-01-29T00:27:26.984Z,-0.80
2023-01-29T00:28:28.751Z,-0.80
2023-01-29T00:29:30.468Z,-0.70
2023-01-29T00:30:32.187Z,-0.70
2023-01-29T00:31:34.132Z,-0.70
2023-01-29T00:32:36.349Z,-0.70
2023-01-29T00:33:38.114Z,-0.70
2023-01-29T00:34:39.854Z,-0.70
2023-01-29T00:35:42.034Z,-0.70
2023-01-29T00:36:45.509Z,-0.60
2023-01-29T00:37:47.326Z,-0.70
2023-01-29T00:38:58.666Z,-0.80
2023-01-29T00:40:00.841Z,-0.80
2023-01-29T00:41:32.078Z,-0.80
2023-01-29T00:42:52.385Z,-0.80
2023-01-29T00:44:12.818Z,-0.80
2023-01-29T00:45:15.455Z,-0.80
2023-01-29T00:46:17.289Z,-0.80
2023-01-29T00:47:45.410Z,-0.90
2023-01-29T00:48:47.187Z,-0.90
2023-01-29T00:49:48.909Z,-0.80
2023-01-29T00:50:50.623Z,-0.80
2023-01-29T00:52:28.154Z,-0.80
2023-01-29T00:53:30.245Z,-0.80
2023-01-29T00:54:33.207Z,-0.90
2023-01-29T00:55:35.070Z,-0.90
2023-01-29T00:56:37.610Z,-0.80
2023-01-29T00:57:39.798Z,-0.80
2023-01-29T00:58:41.527Z,-0.80
2023-01-29T00:59:43.313Z,-0.80
2023-01-29T01:00:45.170Z,-0.90
2023-01-29T01:02:05.703Z,-0.90
2023-01-29T01:03:07.605Z,-0.80
2023-01-29T01:04:11.484Z,-0.90
2023-01-29T01:05:17.813Z,-0.80
2023-01-29T01:06:19.659Z,-0.90
2023-01-29T01:07:21.638Z,-0.90
2023-01-29T01:08:42.111Z,-0.90
2023-01-29T01:10:02.601Z,-0.90
2023-01-29T01:11:07.030Z,-1.00
2023-01-29T01:12:08.801Z,-1.00
2023-01-29T01:13:11.491Z,-1.00
2023-01-29T01:14:13.294Z,-1.00
2023-01-29T01:15:15.701Z,-1.00
2023-01-29T01:16:18.993Z,-1.00
2023-01-29T01:17:20.752Z,-1.00
2023-01-29T01:18:22.927Z,-1.00
2023-01-29T01:19:24.703Z,-1.00
2023-01-29T01:20:28.343Z,-1.00
2023-01-29T01:21:30.103Z,-1.10
2023-01-29T01:22:31.946Z,-1.10
2023-01-29T01:23:33.984Z,-1.00
2023-01-29T01:24:35.825Z,-1.00
2023-01-29T01:25:37.799Z,-1.00
2023-01-29T01:26:39.911Z,-1.00
2023-01-29T01:27:42.119Z,-1.00
2023-01-29T01:28:44.484Z,-1.00
2023-01-29T01:29:46.983Z,-1.00
2023-01-29T01:30:48.807Z,-1.00
2023-01-29T01:31:50.677Z,-1.00
2023-01-29T01:32:53.155Z,-1.10
2023-01-29T01:33:55.608Z,-1.00
2023-01-29T01:34:57.452Z,-1.00
2023-01-29T01:36:02.321Z,-1.10
2023-01-29T01:37:04.263Z,-1.00
2023-01-29T01:38:06.011Z,-1.10
2023-01-29T01:39:07.879Z,-1.00
2023-01-29T01:40:18.362Z,-1.10
2023-01-29T01:41:22.983Z,-1.00
2023-01-29T01:42:30.859Z,-1.00
2023-01-29T01:43:48.765Z,-1.00
2023-01-29T01:45:04.834Z,-1.00
2023-01-29T01:46:06.577Z,-1.00
2023-01-29T01:47:08.482Z,-1.00
2023-01-29T01:48:19.100Z,-1.10
2023-01-29T01:49:21.748Z,-1.10
2023-01-29T01:50:40.539Z,-1.00
2023-01-29T01:51:49.655Z,-1.00
2023-01-29T01:52:57.825Z,-1.10
2023-01-29T01:54:09.033Z,-1.10
2023-01-29T01:55:14.363Z,-1.10
2023-01-29T01:56:24.784Z,-1.10
2023-01-29T01:57:28.674Z,-1.10
2023-01-29T01:58:40.715Z,-1.10
2023-01-29T01:59:50.239Z,-1.20
2023-01-29T02:00:52.483Z,-1.10
2023-01-29T02:01:54.673Z,-1.20
2023-01-29T02:03:14.939Z,-1.10
2023-01-29T02:04:45.251Z,-1.10
2023-01-29T02:06:06.303Z,-1.20
2023-01-29T02:07:29.777Z,-1.20
2023-01-29T02:09:10.509Z,-1.20
2023-01-29T02:10:17.301Z,-1.20
2023-01-29T02:11:19.788Z,-1.20
2023-01-29T02:12:22.447Z,-1.20
2023-01-29T02:13:24.376Z,-1.20
2023-01-29T02:14:26.488Z,-1.20
2023-01-29T02:15:28.280Z,-1.20
2023-01-29T02:16:30.395Z,-1.20
2023-01-29T02:17:32.534Z,-1.20
2023-01-29T02:18:38.089Z,-1.20
2023-01-29T02:19:39.854Z,-1.20
2023-01-29T02:20:48.557Z,-1.20
2023-01-29T02:22:11.535Z,-1.30
2023-01-29T02:23:44.846Z,-1.30
2023-01-29T02:25:11.502Z,-1.30
2023-01-29T02:26:46.433Z,-1.30
2023-01-29T02:28:09.983Z,-1.30
2023-01-29T02:29:34.591Z,-1.40
2023-01-29T02:30:57.774Z,-1.40
2023-01-29T02:32:17.574Z,-1.40
2023-01-29T02:33:24.236Z,-1.40
2023-01-29T02:34:53.756Z,-1.30
2023-01-29T02:36:31.863Z,-1.30
2023-01-29T02:37:39.899Z,-1.30
2023-01-29T02:38:55.075Z,-1.40
2023-01-29T02:40:20.813Z,-1.40
2023-01-29T02:41:38.581Z,-1.30
2023-01-29T02:43:09.823Z,-1.30
2023-01-29T02:44:34.756Z,-1.40
2023-01-29T02:45:48.306Z,-1.40
2023-01-29T02:47:24.076Z,-1.40
2023-01-29T02:48:29.459Z,-1.40
2023-01-29T02:49:50.990Z,-1.50
2023-01-29T02:50:59.525Z,-1.50
2023-01-29T02:52:05.033Z,-1.50
2023-01-29T02:53:16.436Z,-1.50
2023-01-29T02:54:39.676Z,-1.50
2023-01-29T02:55:47.390Z,-1.50
2023-01-29T02:57:05.089Z,-1.50
2023-01-29T02:58:31.227Z,-1.40
2023-01-29T02:59:41.980Z,-1.40
2023-01-29T03:00:46.877Z,-1.40
2023-01-29T03:01:55.399Z,-1.50
2023-01-29T03:03:17.184Z,-1.50
2023-01-29T03:04:27.270Z,-1.60
2023-01-29T03:05:45.135Z,-1.60
2023-01-29T03:07:10.525Z,-1.70
2023-01-29T03:08:16.718Z,-1.80
2023-01-29T03:09:36.839Z,-1.80
2023-01-29T03:10:53.637Z,-1.80
2023-01-29T03:12:01.476Z,-1.90
2023-01-29T03:13:15.329Z,-1.90
2023-01-29T03:14:25.349Z,-1.90
2023-01-29T03:15:31.095Z,-1.90
2023-01-29T03:16:47.856Z,-2.00
2023-01-29T03:18:02.507Z,-2.00
2023-01-29T03:19:16.699Z,-2.00
2023-01-29T03:20:22.656Z,-1.90
2023-01-29T03:22:12.172Z,-1.90
2023-01-29T03:23:52.033Z,-1.90
2023-01-29T03:25:18.629Z,-1.90
2023-01-29T03:26:41.419Z,-1.90
2023-01-29T03:28:23.072Z,-2.00
2023-01-29T03:29:43.535Z,-2.00
2023-01-29T03:31:08.459Z,-2.00
2023-01-29T03:32:11.871Z,-2.10
2023-01-29T03:33:18.503Z,-2.10
2023-01-29T03:34:34.959Z,-2.10
2023-01-29T03:35:41.998Z,-2.10
2023-01-29T03:36:56.356Z,-2.10
2023-01-29T03:37:58.165Z,-2.10
2023-01-29T03:38:59.892Z,-2.20
2023-01-29T03:40:04.148Z,-2.20
2023-01-29T03:41:48.295Z,-2.20
2023-01-29T03:43:08.033Z,-2.20
2023-01-29T03:44:34.845Z,-2.20
2023-01-29T03:46:02.441Z,-2.30
2023-01-29T03:47:23.265Z,-2.20
2023-01-29T03:48:37.452Z,-2.20
2023-01-29T03:49:57.994Z,-2.20
2023-01-29T03:51:05.629Z,-2.30
2023-01-29T03:52:12.815Z,-2.20
2023-01-29T03:53:33.312Z,-2.30
2023-01-29T03:54:48.766Z,-2.30
2023-01-29T03:56:02.174Z,-2.30
2023-01-29T03:57:19.247Z,-2.30
2023-01-29T03:58:26.381Z,-2.30
2023-01-29T03:59:34.194Z,-2.30
2023-01-29T04:00:45.063Z,-2.30
2023-01-29T04:01:57.792Z,-2.30
2023-01-29T04:03:26.489Z,-2.30
2023-01-29T04:04:40.506Z,-2.30
2023-01-29T04:05:53.485Z,-2.30
2023-01-29T04:07:00.715Z,-2.40
2023-01-29T04:08:08.643Z,-2.40
2023-01-29T04:09:23.351Z,-2.40
2023-01-29T04:10:29.037Z,-2.40
2023-01-29T04:11:33.259Z,-2.30
2023-01-29T04:12:59.484Z,-2.40
2023-01-29T04:14:01.338Z,-2.30
2023-01-29T04:15:09.243Z,-2.30
2023-01-29T04:16:18.030Z,-2.30
2023-01-29T04:17:25.692Z,-2.30
2023-01-29T04:18:28.080Z,-2.30
2023-01-29T04:19:30.328Z,-2.30
2023-01-29T04:20:32.196Z,-2.30
2023-01-29T04:21:37.581Z,-2.40
2023-01-29T04:22:40.527Z,-2.40
2023-01-29T04:23:42.298Z,-2.40
2023-01-29T04:24:44.300Z,-2.40
2023-01-29T04:25:51.145Z,-2.40
2023-01-29T04:27:07.687Z,-2.40
2023-01-29T04:28:45.771Z,-2.40
2023-01-29T04:29:50.478Z,-2.40
2023-01-29T04:31:04.933Z,-2.40
2023-01-29T04:32:15.124Z,-2.40
2023-01-29T04:34:09.696Z,-2.40
2023-01-29T04:35:31.682Z,-2.40
2023-01-29T04:37:03.092Z,-2.40
2023-01-29T04:38:16.807Z,-2.40
2023-01-29T04:39:38.296Z,-2.40
2023-01-29T04:41:11.569Z,-2.40
2023-01-29T04:42:26.155Z,-2.40
2023-01-29T04:43:44.310Z,-2.40
2023-01-29T04:44:45.989Z,-2.40
2023-01-29T04:46:11.311Z,-2.40
2023-01-29T04:47:19.199Z,-2.40
2023-01-29T04:48:33.692Z,-2.40
2023-01-29T04:49:50.891Z,-2.40
2023-01-29T04:51:18.823Z,-2.40
2023-01-29T04:52:29.299Z,-2.40
2023-01-29T04:54:02.578Z,-2.40
2023-01-29T04:55:13.251Z,-2.40
2023-01-29T04:56:35.534Z,-2.40
2023-01-29T04:57:52.259Z,-2.40
2023-01-29T04:59:02.246Z,-2.40
2023-01-29T05:00:21.173Z,-2.50
2023-01-29T05:01:25.758Z,-2.40
2023-01-29T05:02:28.462Z,-2.40
2023-01-29T05:03:32.518Z,-2.40
2023-01-29T05:04:35.701Z,-2.50
2023-01-29T05:05:43.807Z,-2.40
2023-01-29T05:06:47.329Z,-2.40
2023-01-29T05:07:49.658Z,-2.50
2023-01-29T05:08:52.294Z,-2.40
2023-01-29T05:09:54.739Z,-2.40
2023-01-29T05:10:58.898Z,-2.50
2023-01-29T05:12:02.190Z,-2.50
2023-01-29T05:13:08.713Z,-2.50
2023-01-29T05:14:14.715Z,-2.50
2023-01-29T05:15:24.004Z,-2.50
2023-01-29T05:16:41.818Z,-2.50
2023-01-29T05:17:43.693Z,-2.50
2023-01-29T05:18:46.396Z,-2.50
2023-01-29T05:19:48.923Z,-2.50
2023-01-29T05:20:51.454Z,-2.50
2023-01-29T05:21:53.601Z,-2.50
2023-01-29T05:22:55.838Z,-2.50
2023-01-29T05:24:20.813Z,-2.50
2023-01-29T05:25:26.172Z,-2.50
2023-01-29T05:26:46.559Z,-2.50
2023-01-29T05:28:14.014Z,-2.50
2023-01-29T05:29:16.639Z,-2.50
2023-01-29T05:30:18.904Z,-2.50
2023-01-29T05:31:20.796Z,-2.50
2023-01-29T05:32:22.650Z,-2.50
2023-01-29T05:33:29.613Z,-2.50
2023-01-29T05:34:31.351Z,-2.50
2023-01-29T05:35:34.000Z,-2.50
2023-01-29T05:36:35.742Z,-2.50
2023-01-29T05:37:37.547Z,-2.50
2023-01-29T05:38:39.270Z,-2.50
2023-01-29T05:39:41.021Z,-2.50
2023-01-29T05:40:43.203Z,-2.50
2023-01-29T05:41:45.018Z,-2.50
2023-01-29T05:42:46.732Z,-2.50
2023-01-29T05:43:48.456Z,-2.50
2023-01-29T05:44:50.238Z,-2.50
2023-01-29T05:46:01.168Z,-2.50
2023-01-29T05:47:02.953Z,-2.60
2023-01-29T05:48:04.927Z,-2.60
2023-01-29T05:49:06.775Z,-2.50
2023-01-29T05:50:09.048Z,-2.50
2023-01-29T05:51:10.828Z,-2.50
2023-01-29T05:52:12.599Z,-2.50
2023-01-29T05:53:14.388Z,-2.50
2023-01-29T05:54:16.157Z,-2.50
2023-01-29T05:55:18.063Z,-2.50
2023-01-29T05:56:19.826Z,-2.50
2023-01-29T05:57:22.118Z,-2.50
2023-01-29T05:58:23.945Z,-2.50
2023-01-29T05:59:25.858Z,-2.50
2023-01-29T06:00:27.646Z,-2.50
2023-01-29T06:01:29.417Z,-2.50
2023-01-29T06:02:31.881Z,-2.50
2023-01-29T06:03:33.831Z,-2.50
2023-01-29T06:04:35.729Z,-2.60
2023-01-29T06:05:40.760Z,-2.60
2023-01-29T06:06:42.523Z,-2.50
2023-01-29T06:07:45.529Z,-2.50
2023-01-29T06:08:47.475Z,-2.50
2023-01-29T06:09:49.230Z,-2.50
2023-01-29T06:10:51.526Z,-2.50
2023-01-29T06:11:53.300Z,-2.60
2023-01-29T06:12:55.181Z,-2.60
2023-01-29T06:13:56.918Z,-2.60
2023-01-29T06:14:58.762Z,-2.60
2023-01-29T06:16:00.617Z,-2.60
2023-01-29T06:17:02.492Z,-2.60
2023-01-29T06:18:04.318Z,-2.50
2023-01-29T06:19:06.075Z,-2.50
2023-01-29T06:20:08.588Z,-2.50
2023-01-29T06:21:13.043Z,-2.50
2023-01-29T06:22:14.867Z,-2.50
2023-01-29T06:23:16.666Z,-2.50
2023-01-29T06:24:18.452Z,-2.50
2023-01-29T06:25:20.186Z,-2.50
2023-01-29T06:26:22.019Z,-2.50
2023-01-29T06:27:23.853Z,-2.50
2023-01-29T06:28:25.579Z,-2.50
2023-01-29T06:29:27.475Z,-2.40
2023-01-29T06:30:29.281Z,-2.40
2023-01-29T06:31:39.724Z,-2.40
2023-01-29T06:32:41.820Z,-2.40
2023-01-29T06:33:43.569Z,-2.40
2023-01-29T06:34:46.427Z,-2.40
2023-01-29T06:35:49.655Z,-2.40
2023-01-29T06:36:51.397Z,-2.30
2023-01-29T06:37:53.505Z,-2.30
2023-01-29T06:38:55.252Z,-2.30
2023-01-29T06:39:57.073Z,-2.30
2023-01-29T06:40:59.170Z,-2.30
2023-01-29T06:42:00.922Z,-2.30
2023-01-29T06:43:02.682Z,-2.30
2023-01-29T06:44:04.532Z,-2.30
2023-01-29T06:45:06.756Z,-2.30
2023-01-29T06:46:08.867Z,-2.30
2023-01-29T06:47:10.597Z,-2.30
2023-01-29T06:48:12.340Z,-2.30
2023-01-29T06:49:14.115Z,-2.20
2023-01-29T06:50:16.165Z,-2.30
2023-01-29T06:51:18.301Z,-2.20
2023-01-29T06:52:20.050Z,-2.20
2023-01-29T06:53:22.314Z,-2.20
2023-01-29T06:54:24.152Z,-2.20
2023-01-29T06:55:26.180Z,-2.20
2023-01-29T06:56:27.995Z,-2.20
2023-01-29T06:57:30.201Z,-2.20
2023-01-29T06:58:32.006Z,-2.10
2023-01-29T06:59:33.754Z,-2.10
2023-01-29T07:00:36.203Z,-2.10
2023-01-29T07:01:41.342Z,-2.10
2023-01-29T07:02:43.102Z,-2.10
2023-01-29T07:03:45.053Z,-2.20
2023-01-29T07:04:46.924Z,-2.10
2023-01-29T07:05:52.933Z,-2.10
2023-01-29T07:06:54.717Z,-2.10
2023-01-29T07:07:56.522Z,-2.10
2023-01-29T07:08:58.307Z,-2.10
2023-01-29T07:10:00.043Z,-2.10
2023-01-29T07:11:02.492Z,-2.10
2023-01-29T07:12:04.769Z,-2.10
2023-01-29T07:13:06.695Z,-2.10
2023-01-29T07:14:08.522Z,-2.10
2023-01-29T07:15:12.637Z,-2.00
2023-01-29T07:16:14.431Z,-2.00
2023-01-29T07:17:16.148Z,-2.00
2023-01-29T07:18:17.913Z,-2.00
2023-01-29T07:19:19.650Z,-2.00
2023-01-29T07:20:21.397Z,-2.00
2023-01-29T07:21:23.372Z,-2.00
2023-01-29T07:22:25.136Z,-2.00
2023-01-29T07:23:26.888Z,-2.00
2023-01-29T07:24:28.954Z,-1.90
2023-01-29T07:25:31.169Z,-1.90
2023-01-29T07:26:32.933Z,-1.90
2023-01-29T07:27:34.680Z,-1.90
2023-01-29T07:28:38.063Z,-1.80
2023-01-29T07:29:39.829Z,-1.80
2023-01-29T07:30:41.607Z,-1.80
2023-01-29T07:31:43.416Z,-1.80
2023-01-29T07:32:45.272Z,-1.80
2023-01-29T07:33:47.067Z,-1.80
2023-01-29T07:34:48.882Z,-1.80
2023-01-29T07:35:50.782Z,-1.80
2023-01-29T07:36:55.366Z,-1.80
2023-01-29T07:37:57.109Z,-1.80
2023-01-29T07:38:58.833Z,-1.80
2023-01-29T07:40:00.587Z,-1.80
2023-01-29T07:41:03.232Z,-1.80
2023-01-29T07:42:05.317Z,-1.80
2023-01-29T07:43:09.359Z,-1.80
2023-01-29T07:44:11.168Z,-1.80
2023-01-29T07:45:13.216Z,-1.80
2023-01-29T07:46:15.143Z,-1.80
2023-01-29T07:47:17.396Z,-1.80
2023-01-29T07:48:19.785Z,-1.70
2023-01-29T07:49:21.529Z,-1.80
2023-01-29T07:50:25.711Z,-1.80
2023-01-29T07:51:27.515Z,-1.70
2023-01-29T07:52:33.764Z,-1.80
2023-01-29T07:53:36.935Z,-1.70
2023-01-29T07:54:38.712Z,-1.70
2023-01-29T07:55:40.928Z,-1.70
2023-01-29T07:56:42.656Z,-1.70
2023-01-29T07:57:44.469Z,-1.70
2023-01-29T07:58:46.229Z,-1.60
2023-01-29T07:59:47.988Z,-1.60
2023-01-29T08:00:50.920Z,-1.70
2023-01-29T08:01:52.856Z,-1.70
2023-01-29T08:02:54.685Z,-1.70
2023-01-29T08:03:56.530Z,-1.70
2023-01-29T08:04:58.296Z,-1.60
2023-01-29T08:06:00.072Z,-1.60
2023-01-29T08:07:01.886Z,-1.70
2023-01-29T08:08:07.451Z,-1.70
2023-01-29T08:09:10.799Z,-1.70
2023-01-29T08:10:12.625Z,-1.70
2023-01-29T08:11:15.325Z,-1.70
2023-01-29T08:12:17.074Z,-1.60
2023-01-29T08:13:18.840Z,-1.60
2023-01-29T08:14:20.575Z,-1.60
2023-01-29T08:15:22.924Z,-1.60
2023-01-29T08:16:24.822Z,-1.60
2023-01-29T08:17:26.605Z,-1.60
2023-01-29T08:18:47.250Z,-1.60
2023-01-29T08:19:49.059Z,-1.60
2023-01-29T08:20:52.587Z,-1.60
2023-01-29T08:22:02.925Z,-1.60
2023-01-29T08:23:07.138Z,-1.60
2023-01-29T08:24:08.978Z,-1.60
2023-01-29T08:25:10.796Z,-1.50
2023-01-29T08:26:12.552Z,-1.50
2023-01-29T08:27:14.538Z,-1.50
2023-01-29T08:28:16.331Z,-1.50
2023-01-29T08:29:18.410Z,-1.50
2023-01-29T08:30:20.172Z,-1.50
2023-01-29T08:31:22.254Z,-1.50
2023-01-29T08:32:24.124Z,-1.50
2023-01-29T08:33:38.360Z,-1.50
2023-01-29T08:34:41.072Z,-1.50
2023-01-29T08:35:42.925Z,-1.50
2023-01-29T08:36:44.696Z,-1.50
2023-01-29T08:37:56.787Z,-1.40
2023-01-29T08:38:58.555Z,-1.40
2023-01-29T08:40:00.479Z,-1.40
2023-01-29T08:41:02.278Z,-1.40
2023-01-29T08:42:04.337Z,-1.40
2023-01-29T08:43:09.324Z,-1.40
2023-01-29T08:44:11.349Z,-1.40
2023-01-29T08:45:17.725Z,-1.40
2023-01-29T08:46:19.653Z,-1.40
2023-01-29T08:47:21.465Z,-1.40
2023-01-29T08:48:24.035Z,-1.40
2023-01-29T08:49:25.940Z,-1.40
2023-01-29T08:50:30.102Z,-1.30
2023-01-29T08:51:31.981Z,-1.30
2023-01-29T08:52:33.735Z,-1.30
2023-01-29T08:53:35.504Z,-1.30
2023-01-29T08:54:37.282Z,-1.30
2023-01-29T08:55:41.193Z,-1.30
2023-01-29T08:56:43.143Z,-1.20
2023-01-29T08:57:44.929Z,-1.20
2023-01-29T08:58:46.709Z,-1.20
2023-01-29T08:59:48.459Z,-1.20
2023-01-29T09:00:50.250Z,-1.10
2023-01-29T09:01:52.030Z,-1.20
2023-01-29T09:02:53.782Z,-1.10
2023-01-29T09:03:55.699Z,-1.10
2023-01-29T09:04:57.442Z,-1.10
2023-01-29T09:05:59.200Z,-1.00
2023-01-29T09:07:00.943Z,-1.00
2023-01-29T09:08:03.030Z,-1.00
2023-01-29T09:09:04.759Z,-1.00
2023-01-29T09:10:06.782Z,-1.00
2023-01-29T09:11:09.024Z,-0.90
2023-01-29T09:12:10.789Z,-0.90
2023-01-29T09:13:12.502Z,-0.90
2023-01-29T09:14:14.728Z,-0.90
2023-01-29T09:15:16.791Z,-0.90
2023-01-29T09:16:18.718Z,-0.90
2023-01-29T09:17:20.633Z,-0.90
2023-01-29T09:18:22.389Z,-0.80
2023-01-29T09:19:24.159Z,-0.80
2023-01-29T09:20:25.868Z,-0.80
2023-01-29T09:21:27.609Z,-0.80
2023-01-29T09:22:29.381Z,-0.80
2023-01-29T09:23:31.702Z,-0.80
2023-01-29T09:24:34.967Z,-0.80
2023-01-29T09:25:37.600Z,-0.80
2023-01-29T09:26:40.192Z,-0.80
2023-01-29T09:27:42.031Z,-0.80
2023-01-29T09:28:43.756Z,-0.70
2023-01-29T09:29:45.511Z,-0.70
2023-01-29T09:30:47.577Z,-0.70
2023-01-29T09:31:49.603Z,-0.60
2023-01-29T09:32:54.113Z,-0.60
2023-01-29T09:33:56.292Z,-0.60
2023-01-29T09:34:58.228Z,-0.60
2023-01-29T09:36:02.391Z,-0.50
2023-01-29T09:37:04.172Z,-0.50
2023-01-29T09:38:05.961Z,-0.50
2023-01-29T09:39:07.725Z,-0.50
2023-01-29T09:40:26.709Z,-0.50
2023-01-29T09:41:55.194Z,-0.50
2023-01-29T09:43:01.162Z,-0.50
2023-01-29T09:44:09.916Z,-0.50
2023-01-29T09:45:21.331Z,-0.50
2023-01-29T09:46:44.964Z,-0.50
2023-01-29T09:47:48.756Z,-0.50
2023-01-29T09:49:07.071Z,-0.50
2023-01-29T09:50:18.422Z,-0.50
2023-01-29T09:51:44.811Z,-0.40
2023-01-29T09:53:01.330Z,-0.30
2023-01-29T09:54:20.878Z,-0.30
2023-01-29T09:55:39.345Z,-0.30
2023-01-29T09:56:44.143Z,-0.30
2023-01-29T09:58:32.612Z,-0.30
2023-01-29T09:59:34.412Z,-0.20
2023-01-29T10:01:18.852Z,-0.20
2023-01-29T10:03:11.062Z,-0.20
2023-01-29T10:04:41.509Z,-0.20
2023-01-29T10:06:11.147Z,-0.20
2023-01-29T10:07:42.014Z,-0.10
2023-01-29T10:09:01.834Z,-0.20
2023-01-29T10:10:13.554Z,-0.20
2023-01-29T10:11:54.241Z,-0.10
2023-01-29T10:13:24.978Z,-0.10
2023-01-29T10:14:57.452Z,-0.10
2023-01-29T10:16:16.379Z,-0.10
2023-01-29T10:17:54.805Z,-0.20
2023-01-29T10:19:10.265Z,-0.20
2023-01-29T10:20:33.774Z,-0.10
2023-01-29T10:21:56.723Z,-0.10
2023-01-29T10:23:04.497Z,-0.10
2023-01-29T10:24:08.991Z,-0.10
2023-01-29T10:25:15.614Z,-0.10
2023-01-29T10:26:27.535Z,-0.10
2023-01-29T10:27:34.801Z,-0.20
2023-01-29T10:28:50.715Z,-0.10
2023-01-29T10:29:55.115Z,-0.10
2023-01-29T10:31:03.995Z,-0.10
2023-01-29T10:32:06.257Z,-0.10
2023-01-29T10:33:27.224Z,0.00
2023-01-29T10:34:43.249Z,0.00
2023-01-29T10:35:50.333Z,-0.10
2023-01-29T10:36:53.903Z,-0.10
2023-01-29T10:38:01.888Z,0.00
2023-01-29T10:39:03.874Z,0.00
2023-01-29T10:40:24.065Z,0.00
2023-01-29T10:41:54.100Z,0.00
2023-01-29T10:43:09.101Z,-0.10
2023-01-29T10:44:16.860Z,-0.10
2023-01-29T10:45:24.808Z,-0.10
2023-01-29T10:46:29.289Z,-0.10
2023-01-29T10:47:49.329Z,0.00
2023-01-29T10:49:18.680Z,0.00
2023-01-29T10:50:49.166Z,0.00
2023-01-29T10:52:05.525Z,0.00
2023-01-29T10:53:37.460Z,0.00
2023-01-29T10:55:08.427Z,0.00
2023-01-29T10:56:39.899Z,0.10
2023-01-29T10:58:10.099Z,0.10
2023-01-29T10:59:26.863Z,0.10
2023-01-29T11:00:33.668Z,0.00
2023-01-29T11:01:35.544Z,0.00
2023-01-29T11:02:37.284Z,-0.10
2023-01-29T11:03:39.142Z,-0.10
2023-01-29T11:04:40.981Z,0.00
2023-01-29T11:05:51.378Z,0.00
2023-01-29T11:06:53.204Z,0.00
2023-01-29T11:08:03.955Z,0.00
2023-01-29T11:09:19.446Z,0.00
2023-01-29T11:10:23.309Z,0.00
2023-01-29T11:11:50.337Z,0.00
2023-01-29T11:12:53.813Z,0.00
2023-01-29T11:13:59.759Z,0.00
2023-01-29T11:15:24.720Z,0.00
2023-01-29T11:16:29.924Z,0.00
2023-01-29T11:17:31.701Z,0.00
2023-01-29T11:18:55.349Z,0.00
2023-01-29T11:19:57.179Z,0.00
2023-01-29T11:21:04.904Z,0.00
2023-01-29T11:22:16.849Z,0.10
2023-01-29T11:23:31.576Z,0.00
2023-01-29T11:24:33.334Z,0.00
2023-01-29T11:25:36.053Z,0.10
2023-01-29T11:26:42.170Z,0.10
2023-01-29T11:27:51.482Z,0.10
2023-01-29T11:28:53.215Z,0.10
2023-01-29T11:29:56.195Z,0.10
2023-01-29T11:30:58.283Z,0.10
2023-01-29T11:32:03.869Z,0.20
2023-01-29T11:33:09.914Z,0.20
2023-01-29T11:34:25.415Z,0.30
2023-01-29T11:35:35.898Z,0.40
2023-01-29T11:36:39.219Z,0.40
2023-01-29T11:37:47.051Z,0.40
2023-01-29T11:39:07.985Z,0.40
2023-01-29T11:40:19.146Z,0.50
2023-01-29T11:41:22.484Z,0.50
2023-01-29T11:44:01.405Z,0.60
2023-01-29T11:45:03.347Z,0.60
2023-01-29T11:46:11.638Z,0.70
2023-01-29T11:47:16.227Z,0.60
2023-01-29T11:48:27.011Z,0.70
2023-01-29T11:49:34.620Z,0.60
2023-01-29T11:50:36.915Z,0.60
2023-01-29T11:51:41.420Z,0.70
2023-01-29T11:52:44.159Z,0.70
2023-01-29T11:53:52.495Z,0.70
2023-01-29T11:55:06.926Z,0.70
2023-01-29T11:56:25.915Z,0.70
2023-01-29T11:57:34.054Z,0.70
2023-01-29T11:58:36.438Z,0.80
2023-01-29T11:59:48.995Z,0.70
2023-01-29T12:00:54.285Z,0.70
2023-01-29T12:02:02.850Z,0.60
2023-01-29T12:03:20.389Z,0.50
2023-01-29T12:04:24.804Z,0.50
2023-01-29T12:05:27.623Z,0.60
2023-01-29T12:06:42.532Z,0.60
2023-01-29T12:07:46.653Z,0.70
2023-01-29T12:08:57.975Z,0.70
2023-01-29T12:10:00.444Z,0.70
2023-01-29T12:11:23.929Z,0.70
2023-01-29T12:12:41.951Z,0.80
2023-01-29T12:13:43.857Z,0.90
2023-01-29T12:14:45.705Z,0.90
2023-01-29T12:15:48.800Z,1.00
2023-01-29T12:16:54.884Z,1.00
2023-01-29T12:18:13.350Z,1.00
2023-01-29T12:19:20.743Z,1.00
2023-01-29T12:20:28.166Z,1.10
2023-01-29T12:22:11.880Z,1.10
2023-01-29T12:23:36.725Z,1.10
2023-01-29T12:25:08.966Z,1.10
2023-01-29T12:26:54.446Z,1.20
2023-01-29T12:28:09.586Z,1.20
2023-01-29T12:29:34.265Z,1.30
2023-01-29T12:30:53.888Z,1.30
2023-01-29T12:32:20.463Z,1.40
2023-01-29T12:33:43.824Z,1.40
2023-01-29T12:34:53.575Z,1.20
2023-01-29T12:36:05.988Z,1.10
2023-01-29T12:37:41.499Z,1.10
2023-01-29T12:38:45.739Z,1.10
2023-01-29T12:39:49.634Z,1.10
2023-01-29T12:41:22.411Z,1.20
2023-01-29T12:42:25.438Z,1.20
2023-01-29T12:43:43.349Z,1.20
2023-01-29T12:44:51.671Z,1.30
2023-01-29T12:45:56.827Z,1.30
2023-01-29T12:47:02.858Z,1.30
2023-01-29T12:48:11.344Z,1.30
2023-01-29T12:49:25.285Z,1.30
2023-01-29T12:50:32.154Z,1.30
2023-01-29T12:51:51.594Z,1.30
2023-01-29T12:53:20.617Z,1.40
2023-01-29T12:54:35.032Z,1.40
2023-01-29T12:55:48.173Z,1.40
2023-01-29T12:56:54.437Z,1.40
2023-01-29T12:58:00.501Z,1.50
2023-01-29T12:59:32.243Z,1.40
2023-01-29T13:00:40.011Z,1.40
2023-01-29T13:01:55.057Z,1.40
2023-01-29T13:03:17.009Z,1.50
2023-01-29T13:04:53.275Z,1.50
2023-01-29T13:06:04.151Z,1.60
2023-01-29T13:07:21.326Z,1.60
2023-01-29T13:08:32.547Z,1.60
2023-01-29T13:09:38.889Z,1.60
2023-01-29T13:10:48.910Z,1.60
2023-01-29T13:11:58.590Z,1.60
2023-01-29T13:13:42.852Z,1.60
2023-01-29T13:14:49.063Z,1.60
2023-01-29T13:15:53.576Z,1.60
2023-01-29T13:17:07.973Z,1.50
2023-01-29T13:18:40.859Z,1.60
2023-01-29T13:19:45.791Z,1.40
2023-01-29T13:20:49.840Z,1.50
2023-01-29T13:21:54.022Z,1.50
2023-01-29T13:23:01.169Z,1.50
2023-01-29T13:24:18.593Z,1.50
2023-01-29T13:25:20.822Z,1.50
2023-01-29T13:26:27.044Z,1.50
2023-01-29T13:27:33.023Z,1.50
2023-01-29T13:28:37.118Z,1.40
2023-01-29T13:29:39.595Z,1.40
2023-01-29T13:30:43.077Z,1.40
2023-01-29T13:31:48.559Z,1.40
2023-01-29T13:32:52.703Z,1.40
2023-01-29T13:34:12.354Z,1.40
2023-01-29T13:35:15.843Z,1.30
2023-01-29T13:36:28.032Z,1.30
2023-01-29T13:37:32.361Z,1.40
2023-01-29T13:38:35.466Z,1.40
2023-01-29T13:39:46.928Z,1.30
2023-01-29T13:40:50.223Z,1.30
2023-01-29T13:41:53.562Z,1.30
2023-01-29T13:42:58.949Z,1.30
2023-01-29T13:44:04.571Z,1.30
2023-01-29T13:45:09.000Z,1.30
2023-01-29T13:47:14.851Z,1.30
2023-01-29T13:48:34.575Z,1.30
2023-01-29T13:49:47.906Z,1.30
2023-01-29T13:50:51.437Z,1.30
2023-01-29T13:51:56.130Z,1.30
2023-01-29T13:53:03.164Z,1.30
2023-01-29T13:54:18.140Z,1.30
2023-01-29T13:55:30.986Z,1.20
2023-01-29T13:56:32.693Z,1.30
2023-01-29T13:57:47.713Z,1.30
2023-01-29T13:58:53.444Z,1.30
2023-01-29T13:59:56.361Z,1.20
2023-01-29T14:01:00.419Z,1.20
2023-01-29T14:02:04.516Z,1.20
2023-01-29T14:03:11.679Z,1.20
2023-01-29T14:04:19.317Z,1.20
2023-01-29T14:05:29.729Z,1.20
2023-01-29T14:06:43.809Z,1.30
2023-01-29T14:07:45.508Z,1.20
2023-01-29T14:08:47.856Z,1.20
2023-01-29T14:09:49.679Z,1.20
2023-01-29T14:11:17.179Z,1.20
2023-01-29T14:12:21.941Z,1.20
2023-01-29T14:13:28.147Z,1.30
2023-01-29T14:14:48.207Z,1.30
2023-01-29T14:15:58.840Z,1.30
2023-01-29T14:17:03.770Z,1.20
2023-01-29T14:18:13.192Z,1.20
2023-01-29T14:19:19.141Z,1.20
2023-01-29T14:20:27.710Z,1.20
2023-01-29T14:21:37.064Z,1.20
2023-01-29T14:22:38.873Z,1.20
2023-01-29T14:23:54.687Z,1.20
2023-01-29T14:25:01.827Z,1.20
2023-01-29T14:26:06.358Z,1.20
2023-01-29T14:27:21.799Z,1.20
2023-01-29T14:28:28.488Z,1.20
2023-01-29T14:29:35.668Z,1.20
2023-01-29T14:30:38.066Z,1.20
2023-01-29T14:31:42.066Z,1.20
2023-01-29T14:32:48.023Z,1.20
2023-01-29T14:33:52.638Z,1.30
2023-01-29T14:35:10.212Z,1.30
2023-01-29T14:36:14.540Z,1.30
2023-01-29T14:37:16.233Z,1.20
2023-01-29T14:38:18.174Z,1.10
2023-01-29T14:39:31.206Z,1.10
2023-01-29T14:40:36.816Z,1.10
2023-01-29T14:41:38.653Z,1.10
2023-01-29T14:43:00.591Z,1.10
2023-01-29T14:44:43.810Z,1.10
2023-01-29T14:45:47.089Z,1.10
2023-01-29T14:46:49.549Z,1.10
2023-01-29T14:47:51.243Z,1.00
2023-01-29T14:48:53.367Z,1.00
2023-01-29T14:50:00.137Z,1.00
2023-01-29T14:51:09.753Z,1.10
2023-01-29T14:52:13.199Z,1.00
2023-01-29T14:53:23.775Z,1.00
2023-01-29T14:54:33.613Z,1.00